map of ELT home
ELT - Airport
Location
City:  El Tor, Janub Sina (South Sinai), Egypt
Name:Tour Sinai City
ICAO:HETR
IATA:ELT

Details
Type:Airport (Aerodrome, Airfield)
Latitude:2812'33"N (28.209028)
Longitude:3338'44"E (33.645517)
Datum:WGS 1984
Elevation:115 ft (35 m)
Variation:4.37E (WMM2015 magnetic declination)
0.08 annual change
Runways:1
Longest:9843 × 148 ft (3000 × 45 m), paved

Time
Time Zone:UTC+2
Local Time:

Weather
METAR:HETR 190500Z 01005KT CAVOK 17/11 Q1014

Related Locations
Nearby:
Farthest:RVV: 12122 mi / 19509 km
Raivavae, Tubuai Islands, Austral Islands, PF

Find:

   beyond  
but within

Other Information
Maps:
NOTAMs:
Links:
Sources:

  
  • flag of Egypt
  • flag of Janub Sina (South Sinai)
  

Sectional Chart

Flight Planning
at skyvector.com

Satellite Image

Google Maps Satellite view

 

Copyright © 2004-2018 Karl L. Swartz. All rights reserved.
The Great Circle Mapper name and logo are trademarks of the Great Circle Mapper.
All other trademarks mentioned herein belong to their respective owners.
Please see credits for attibutions and further copyright information.

  Follow gcmap on Facebook Follow gcmap on Twitter Follow gcmap on Google+ GCmap on LinkedIn

hCard Microformat

Geo Microformat